sensor_id;sensor_type;location;lat;lon;timestamp;P1;durP1;ratioP1;P2;durP2;ratioP2
59524;SDS011;45346;51.728;5.732;2022-12-18T00:03:56;0.40;;;0.40;;
59524;SDS011;45346;51.728;5.732;2022-12-18T00:06:22;0.50;;;0.50;;
59524;SDS011;45346;51.728;5.732;2022-12-18T00:08:48;0.40;;;0.40;;
59524;SDS011;45346;51.728;5.732;2022-12-18T00:11:18;0.40;;;0.40;;
59524;SDS011;45346;51.728;5.732;2022-12-18T00:13:44;0.40;;;0.40;;
59524;SDS011;45346;51.728;5.732;2022-12-18T00:16:11;0.40;;;0.40;;
59524;SDS011;45346;51.728;5.732;2022-12-18T00:18:38;0.40;;;0.40;;
59524;SDS011;45346;51.728;5.732;2022-12-18T00:21:04;0.40;;;0.40;;
59524;SDS011;45346;51.728;5.732;2022-12-18T00:23:31;0.50;;;0.50;;
59524;SDS011;45346;51.728;5.732;2022-12-18T00:26:01;0.40;;;0.40;;
59524;SDS011;45346;51.728;5.732;2022-12-18T00:28:27;0.40;;;0.40;;
59524;SDS011;45346;51.728;5.732;2022-12-18T00:31:05;0.40;;;0.40;;
59524;SDS011;45346;51.728;5.732;2022-12-18T00:33:32;0.40;;;0.40;;
59524;SDS011;45346;51.728;5.732;2022-12-18T00:36:04;0.50;;;0.50;;
59524;SDS011;45346;51.728;5.732;2022-12-18T00:38:31;0.50;;;0.50;;
59524;SDS011;45346;51.728;5.732;2022-12-18T00:40:57;0.50;;;0.50;;
59524;SDS011;45346;51.728;5.732;2022-12-18T00:43:22;0.50;;;0.50;;
59524;SDS011;45346;51.728;5.732;2022-12-18T00:45:48;0.40;;;0.40;;
59524;SDS011;45346;51.728;5.732;2022-12-18T00:48:13;0.50;;;0.50;;
59524;SDS011;45346;51.728;5.732;2022-12-18T00:50:38;0.45;;;0.45;;
59524;SDS011;45346;51.728;5.732;2022-12-18T00:53:04;0.50;;;0.50;;
59524;SDS011;45346;51.728;5.732;2022-12-18T00:55:29;0.50;;;0.50;;
59524;SDS011;45346;51.728;5.732;2022-12-18T00:57:54;0.40;;;0.40;;
59524;SDS011;45346;51.728;5.732;2022-12-18T01:00:20;0.40;;;0.40;;
59524;SDS011;45346;51.728;5.732;2022-12-18T01:02:45;0.40;;;0.40;;
59524;SDS011;45346;51.728;5.732;2022-12-18T01:05:11;0.40;;;0.40;;
59524;SDS011;45346;51.728;5.732;2022-12-18T01:07:39;0.40;;;0.40;;
59524;SDS011;45346;51.728;5.732;2022-12-18T01:10:05;0.40;;;0.40;;
59524;SDS011;45346;51.728;5.732;2022-12-18T01:12:32;0.40;;;0.40;;
59524;SDS011;45346;51.728;5.732;2022-12-18T01:14:57;0.50;;;0.50;;
59524;SDS011;45346;51.728;5.732;2022-12-18T01:17:23;0.40;;;0.40;;
59524;SDS011;45346;51.728;5.732;2022-12-18T01:19:48;0.47;;;0.47;;
59524;SDS011;45346;51.728;5.732;2022-12-18T01:22:13;0.40;;;0.40;;
59524;SDS011;45346;51.728;5.732;2022-12-18T01:24:41;0.40;;;0.40;;
59524;SDS011;45346;51.728;5.732;2022-12-18T01:27:06;0.40;;;0.40;;
59524;SDS011;45346;51.728;5.732;2022-12-18T01:29:32;0.40;;;0.40;;
59524;SDS011;45346;51.728;5.732;2022-12-18T01:31:57;0.40;;;0.40;;
59524;SDS011;45346;51.728;5.732;2022-12-18T01:34:23;0.40;;;0.40;;
59524;SDS011;45346;51.728;5.732;2022-12-18T01:36:48;0.50;;;0.50;;
59524;SDS011;45346;51.728;5.732;2022-12-18T01:39:14;0.40;;;0.40;;
59524;SDS011;45346;51.728;5.732;2022-12-18T01:41:40;0.50;;;0.50;;
59524;SDS011;45346;51.728;5.732;2022-12-18T01:52:38;0.40;;;0.40;;
59524;SDS011;45346;51.728;5.732;2022-12-18T01:55:06;0.40;;;0.40;;
59524;SDS011;45346;51.728;5.732;2022-12-18T01:57:33;0.40;;;0.40;;
59524;SDS011;45346;51.728;5.732;2022-12-18T02:00:00;0.50;;;0.50;;
59524;SDS011;45346;51.728;5.732;2022-12-18T02:02:28;0.40;;;0.40;;
59524;SDS011;45346;51.728;5.732;2022-12-18T02:04:54;0.40;;;0.40;;
59524;SDS011;45346;51.728;5.732;2022-12-18T02:07:23;0.40;;;0.40;;
59524;SDS011;45346;51.728;5.732;2022-12-18T02:10:00;0.50;;;0.50;;
59524;SDS011;45346;51.728;5.732;2022-12-18T02:12:52;0.50;;;0.50;;
59524;SDS011;45346;51.728;5.732;2022-12-18T02:15:29;0.50;;;0.50;;
59524;SDS011;45346;51.728;5.732;2022-12-18T02:18:02;0.40;;;0.40;;
59524;SDS011;45346;51.728;5.732;2022-12-18T02:20:33;0.40;;;0.40;;
59524;SDS011;45346;51.728;5.732;2022-12-18T02:23:11;0.40;;;0.40;;
59524;SDS011;45346;51.728;5.732;2022-12-18T02:28:40;0.40;;;0.40;;
59524;SDS011;45346;51.728;5.732;2022-12-18T02:31:09;0.40;;;0.40;;
59524;SDS011;45346;51.728;5.732;2022-12-18T02:33:36;0.40;;;0.40;;
59524;SDS011;45346;51.728;5.732;2022-12-18T02:36:02;0.40;;;0.40;;
59524;SDS011;45346;51.728;5.732;2022-12-18T02:38:28;0.40;;;0.40;;
59524;SDS011;45346;51.728;5.732;2022-12-18T02:40:54;0.40;;;0.40;;
59524;SDS011;45346;51.728;5.732;2022-12-18T02:43:20;0.40;;;0.40;;
59524;SDS011;45346;51.728;5.732;2022-12-18T02:45:46;0.40;;;0.40;;
59524;SDS011;45346;51.728;5.732;2022-12-18T02:48:13;0.40;;;0.40;;
59524;SDS011;45346;51.728;5.732;2022-12-18T02:50:41;0.35;;;0.35;;
59524;SDS011;45346;51.728;5.732;2022-12-18T02:53:14;0.30;;;0.30;;
59524;SDS011;45346;51.728;5.732;2022-12-18T03:04:04;0.40;;;0.40;;
59524;SDS011;45346;51.728;5.732;2022-12-18T03:06:35;0.40;;;0.40;;
59524;SDS011;45346;51.728;5.732;2022-12-18T03:09:09;0.40;;;0.40;;
59524;SDS011;45346;51.728;5.732;2022-12-18T03:11:37;0.40;;;0.40;;
59524;SDS011;45346;51.728;5.732;2022-12-18T03:14:23;0.40;;;0.40;;
59524;SDS011;45346;51.728;5.732;2022-12-18T03:16:51;0.40;;;0.40;;
59524;SDS011;45346;51.728;5.732;2022-12-18T03:19:19;0.30;;;0.30;;
59524;SDS011;45346;51.728;5.732;2022-12-18T03:21:51;0.35;;;0.35;;
59524;SDS011;45346;51.728;5.732;2022-12-18T03:24:19;0.40;;;0.40;;
59524;SDS011;45346;51.728;5.732;2022-12-18T03:26:46;0.40;;;0.40;;
59524;SDS011;45346;51.728;5.732;2022-12-18T03:29:16;0.40;;;0.40;;
59524;SDS011;45346;51.728;5.732;2022-12-18T03:31:47;0.40;;;0.40;;
59524;SDS011;45346;51.728;5.732;2022-12-18T03:34:20;0.40;;;0.40;;
59524;SDS011;45346;51.728;5.732;2022-12-18T03:36:48;0.50;;;0.50;;
59524;SDS011;45346;51.728;5.732;2022-12-18T03:39:13;0.40;;;0.40;;
59524;SDS011;45346;51.728;5.732;2022-12-18T03:41:52;0.40;;;0.40;;
59524;SDS011;45346;51.728;5.732;2022-12-18T03:44:28;0.40;;;0.40;;
59524;SDS011;45346;51.728;5.732;2022-12-18T03:49:41;0.40;;;0.40;;
59524;SDS011;45346;51.728;5.732;2022-12-18T03:54:51;0.50;;;0.50;;
59524;SDS011;45346;51.728;5.732;2022-12-18T03:57:21;0.50;;;0.50;;
59524;SDS011;45346;51.728;5.732;2022-12-18T03:59:50;0.45;;;0.45;;
59524;SDS011;45346;51.728;5.732;2022-12-18T04:02:19;0.40;;;0.40;;
59524;SDS011;45346;51.728;5.732;2022-12-18T04:04:46;0.50;;;0.50;;
59524;SDS011;45346;51.728;5.732;2022-12-18T04:07:12;0.40;;;0.40;;
59524;SDS011;45346;51.728;5.732;2022-12-18T04:09:38;0.40;;;0.40;;
59524;SDS011;45346;51.728;5.732;2022-12-18T04:12:04;0.40;;;0.40;;
59524;SDS011;45346;51.728;5.732;2022-12-18T04:14:29;0.40;;;0.40;;
59524;SDS011;45346;51.728;5.732;2022-12-18T04:16:54;0.40;;;0.40;;
59524;SDS011;45346;51.728;5.732;2022-12-18T04:19:20;0.40;;;0.40;;
59524;SDS011;45346;51.728;5.732;2022-12-18T04:21:45;0.50;;;0.50;;
59524;SDS011;45346;51.728;5.732;2022-12-18T04:24:10;0.40;;;0.40;;
59524;SDS011;45346;51.728;5.732;2022-12-18T04:26:36;0.40;;;0.40;;
59524;SDS011;45346;51.728;5.732;2022-12-18T04:29:01;0.40;;;0.40;;
59524;SDS011;45346;51.728;5.732;2022-12-18T04:31:27;0.40;;;0.40;;
59524;SDS011;45346;51.728;5.732;2022-12-18T04:33:52;0.40;;;0.40;;
59524;SDS011;45346;51.728;5.732;2022-12-18T04:36:17;0.40;;;0.40;;
59524;SDS011;45346;51.728;5.732;2022-12-18T04:38:43;0.40;;;0.40;;
59524;SDS011;45346;51.728;5.732;2022-12-18T04:41:08;0.40;;;0.40;;
59524;SDS011;45346;51.728;5.732;2022-12-18T04:43:33;0.50;;;0.50;;
59524;SDS011;45346;51.728;5.732;2022-12-18T04:46:03;0.40;;;0.40;;
59524;SDS011;45346;51.728;5.732;2022-12-18T04:48:31;0.50;;;0.50;;
59524;SDS011;45346;51.728;5.732;2022-12-18T04:50:57;0.40;;;0.40;;
59524;SDS011;45346;51.728;5.732;2022-12-18T04:53:22;0.40;;;0.40;;
59524;SDS011;45346;51.728;5.732;2022-12-18T04:55:48;0.45;;;0.45;;
59524;SDS011;45346;51.728;5.732;2022-12-18T04:58:13;0.40;;;0.40;;
59524;SDS011;45346;51.728;5.732;2022-12-18T05:00:38;0.40;;;0.40;;
59524;SDS011;45346;51.728;5.732;2022-12-18T05:03:04;0.40;;;0.40;;
59524;SDS011;45346;51.728;5.732;2022-12-18T05:05:29;0.40;;;0.40;;
59524;SDS011;45346;51.728;5.732;2022-12-18T05:07:54;0.43;;;0.43;;
59524;SDS011;45346;51.728;5.732;2022-12-18T05:10:20;0.40;;;0.40;;
59524;SDS011;45346;51.728;5.732;2022-12-18T05:12:45;0.40;;;0.40;;
59524;SDS011;45346;51.728;5.732;2022-12-18T05:15:23;0.40;;;0.40;;
59524;SDS011;45346;51.728;5.732;2022-12-18T05:17:49;0.40;;;0.40;;
59524;SDS011;45346;51.728;5.732;2022-12-18T05:20:14;0.40;;;0.40;;
59524;SDS011;45346;51.728;5.732;2022-12-18T05:22:40;0.40;;;0.40;;
59524;SDS011;45346;51.728;5.732;2022-12-18T05:25:05;0.40;;;0.40;;
59524;SDS011;45346;51.728;5.732;2022-12-18T05:27:30;0.40;;;0.40;;
59524;SDS011;45346;51.728;5.732;2022-12-18T05:29:56;0.43;;;0.43;;
59524;SDS011;45346;51.728;5.732;2022-12-18T05:32:21;0.40;;;0.40;;
59524;SDS011;45346;51.728;5.732;2022-12-18T05:34:46;0.40;;;0.40;;
59524;SDS011;45346;51.728;5.732;2022-12-18T05:37:12;0.40;;;0.40;;
59524;SDS011;45346;51.728;5.732;2022-12-18T05:39:37;0.40;;;0.40;;
59524;SDS011;45346;51.728;5.732;2022-12-18T05:42:02;0.40;;;0.40;;
59524;SDS011;45346;51.728;5.732;2022-12-18T05:44:28;0.40;;;0.40;;
59524;SDS011;45346;51.728;5.732;2022-12-18T05:46:53;0.40;;;0.40;;
59524;SDS011;45346;51.728;5.732;2022-12-18T05:49:19;0.40;;;0.40;;
59524;SDS011;45346;51.728;5.732;2022-12-18T05:51:44;0.40;;;0.40;;
59524;SDS011;45346;51.728;5.732;2022-12-18T05:54:09;0.40;;;0.40;;
59524;SDS011;45346;51.728;5.732;2022-12-18T05:56:34;0.40;;;0.40;;
59524;SDS011;45346;51.728;5.732;2022-12-18T05:59:00;0.40;;;0.40;;
59524;SDS011;45346;51.728;5.732;2022-12-18T06:01:26;0.40;;;0.40;;
59524;SDS011;45346;51.728;5.732;2022-12-18T06:03:51;0.40;;;0.40;;
59524;SDS011;45346;51.728;5.732;2022-12-18T06:06:18;0.40;;;0.40;;
59524;SDS011;45346;51.728;5.732;2022-12-18T06:08:44;0.40;;;0.40;;
59524;SDS011;45346;51.728;5.732;2022-12-18T06:11:10;0.40;;;0.40;;
59524;SDS011;45346;51.728;5.732;2022-12-18T06:13:36;0.40;;;0.40;;
59524;SDS011;45346;51.728;5.732;2022-12-18T06:16:03;0.40;;;0.40;;
59524;SDS011;45346;51.728;5.732;2022-12-18T06:18:29;0.40;;;0.40;;
59524;SDS011;45346;51.728;5.732;2022-12-18T06:20:58;0.40;;;0.40;;
59524;SDS011;45346;51.728;5.732;2022-12-18T06:23:23;0.40;;;0.40;;
59524;SDS011;45346;51.728;5.732;2022-12-18T06:25:50;0.40;;;0.40;;
59524;SDS011;45346;51.728;5.732;2022-12-18T06:28:16;0.40;;;0.40;;
59524;SDS011;45346;51.728;5.732;2022-12-18T06:30:45;0.40;;;0.40;;
59524;SDS011;45346;51.728;5.732;2022-12-18T06:33:11;0.40;;;0.40;;
59524;SDS011;45346;51.728;5.732;2022-12-18T06:35:36;0.40;;;0.40;;
59524;SDS011;45346;51.728;5.732;2022-12-18T06:38:02;0.40;;;0.40;;
59524;SDS011;45346;51.728;5.732;2022-12-18T06:40:28;0.40;;;0.40;;
59524;SDS011;45346;51.728;5.732;2022-12-18T06:42:53;0.40;;;0.40;;
59524;SDS011;45346;51.728;5.732;2022-12-18T06:45:19;0.40;;;0.40;;
59524;SDS011;45346;51.728;5.732;2022-12-18T06:47:44;0.40;;;0.40;;
59524;SDS011;45346;51.728;5.732;2022-12-18T06:50:10;0.35;;;0.35;;
59524;SDS011;45346;51.728;5.732;2022-12-18T06:52:35;0.30;;;0.30;;
59524;SDS011;45346;51.728;5.732;2022-12-18T06:55:01;0.40;;;0.40;;
59524;SDS011;45346;51.728;5.732;2022-12-18T06:57:27;0.40;;;0.40;;
59524;SDS011;45346;51.728;5.732;2022-12-18T06:59:52;0.40;;;0.40;;
59524;SDS011;45346;51.728;5.732;2022-12-18T07:02:17;0.40;;;0.40;;
59524;SDS011;45346;51.728;5.732;2022-12-18T07:04:43;0.40;;;0.40;;
59524;SDS011;45346;51.728;5.732;2022-12-18T07:07:08;0.40;;;0.40;;
59524;SDS011;45346;51.728;5.732;2022-12-18T07:09:33;0.30;;;0.30;;
59524;SDS011;45346;51.728;5.732;2022-12-18T07:11:59;0.32;;;0.32;;
59524;SDS011;45346;51.728;5.732;2022-12-18T07:14:24;0.40;;;0.40;;
59524;SDS011;45346;51.728;5.732;2022-12-18T07:16:49;0.40;;;0.40;;
59524;SDS011;45346;51.728;5.732;2022-12-18T07:19:15;0.40;;;0.40;;
59524;SDS011;45346;51.728;5.732;2022-12-18T07:21:40;0.50;;;0.50;;
59524;SDS011;45346;51.728;5.732;2022-12-18T07:24:05;0.40;;;0.40;;
59524;SDS011;45346;51.728;5.732;2022-12-18T07:26:31;0.50;;;0.50;;
59524;SDS011;45346;51.728;5.732;2022-12-18T07:28:56;0.40;;;0.40;;
59524;SDS011;45346;51.728;5.732;2022-12-18T07:31:23;0.40;;;0.40;;
59524;SDS011;45346;51.728;5.732;2022-12-18T07:33:49;0.40;;;0.40;;
59524;SDS011;45346;51.728;5.732;2022-12-18T07:36:15;0.35;;;0.35;;
59524;SDS011;45346;51.728;5.732;2022-12-18T07:38:41;0.32;;;0.32;;
59524;SDS011;45346;51.728;5.732;2022-12-18T07:41:10;0.40;;;0.40;;
59524;SDS011;45346;51.728;5.732;2022-12-18T07:43:37;0.40;;;0.40;;
59524;SDS011;45346;51.728;5.732;2022-12-18T07:46:02;0.30;;;0.30;;
59524;SDS011;45346;51.728;5.732;2022-12-18T07:48:28;0.40;;;0.40;;
59524;SDS011;45346;51.728;5.732;2022-12-18T07:50:57;0.40;;;0.40;;
59524;SDS011;45346;51.728;5.732;2022-12-18T07:53:23;0.40;;;0.40;;
59524;SDS011;45346;51.728;5.732;2022-12-18T07:55:49;0.40;;;0.40;;
59524;SDS011;45346;51.728;5.732;2022-12-18T07:58:14;0.40;;;0.40;;
59524;SDS011;45346;51.728;5.732;2022-12-18T08:00:39;0.40;;;0.40;;
59524;SDS011;45346;51.728;5.732;2022-12-18T08:03:04;0.40;;;0.40;;
59524;SDS011;45346;51.728;5.732;2022-12-18T08:05:30;0.40;;;0.40;;
59524;SDS011;45346;51.728;5.732;2022-12-18T08:07:55;0.40;;;0.40;;
59524;SDS011;45346;51.728;5.732;2022-12-18T08:10:21;0.40;;;0.40;;
59524;SDS011;45346;51.728;5.732;2022-12-18T08:12:50;0.40;;;0.40;;
59524;SDS011;45346;51.728;5.732;2022-12-18T08:15:16;0.35;;;0.35;;
59524;SDS011;45346;51.728;5.732;2022-12-18T08:17:41;0.38;;;0.38;;
59524;SDS011;45346;51.728;5.732;2022-12-18T08:20:07;0.30;;;0.30;;
59524;SDS011;45346;51.728;5.732;2022-12-18T08:22:33;0.40;;;0.40;;
59524;SDS011;45346;51.728;5.732;2022-12-18T08:25:04;0.30;;;0.30;;
59524;SDS011;45346;51.728;5.732;2022-12-18T08:27:30;0.35;;;0.35;;
59524;SDS011;45346;51.728;5.732;2022-12-18T08:29:56;0.30;;;0.30;;
59524;SDS011;45346;51.728;5.732;2022-12-18T08:32:21;0.30;;;0.30;;
59524;SDS011;45346;51.728;5.732;2022-12-18T08:34:47;0.30;;;0.30;;
59524;SDS011;45346;51.728;5.732;2022-12-18T08:37:12;0.35;;;0.35;;
59524;SDS011;45346;51.728;5.732;2022-12-18T08:39:37;0.30;;;0.30;;
59524;SDS011;45346;51.728;5.732;2022-12-18T08:42:03;0.40;;;0.40;;
59524;SDS011;45346;51.728;5.732;2022-12-18T08:44:46;0.30;;;0.30;;
59524;SDS011;45346;51.728;5.732;2022-12-18T08:47:12;0.30;;;0.30;;
59524;SDS011;45346;51.728;5.732;2022-12-18T08:49:37;0.30;;;0.30;;
59524;SDS011;45346;51.728;5.732;2022-12-18T08:52:02;0.30;;;0.30;;
59524;SDS011;45346;51.728;5.732;2022-12-18T08:54:28;0.40;;;0.40;;
59524;SDS011;45346;51.728;5.732;2022-12-18T08:56:54;0.30;;;0.30;;
59524;SDS011;45346;51.728;5.732;2022-12-18T08:59:19;0.35;;;0.35;;
59524;SDS011;45346;51.728;5.732;2022-12-18T09:01:45;0.40;;;0.40;;
59524;SDS011;45346;51.728;5.732;2022-12-18T09:04:11;0.30;;;0.30;;
59524;SDS011;45346;51.728;5.732;2022-12-18T09:06:36;0.30;;;0.30;;
59524;SDS011;45346;51.728;5.732;2022-12-18T09:09:02;0.30;;;0.30;;
59524;SDS011;45346;51.728;5.732;2022-12-18T09:11:29;0.30;;;0.30;;
59524;SDS011;45346;51.728;5.732;2022-12-18T09:13:54;0.38;;;0.38;;
59524;SDS011;45346;51.728;5.732;2022-12-18T09:16:20;0.30;;;0.30;;
59524;SDS011;45346;51.728;5.732;2022-12-18T09:18:46;0.30;;;0.30;;
59524;SDS011;45346;51.728;5.732;2022-12-18T09:21:14;0.30;;;0.30;;
59524;SDS011;45346;51.728;5.732;2022-12-18T09:23:52;0.30;;;0.30;;
59524;SDS011;45346;51.728;5.732;2022-12-18T09:26:18;0.30;;;0.30;;
59524;SDS011;45346;51.728;5.732;2022-12-18T09:28:44;0.30;;;0.30;;
59524;SDS011;45346;51.728;5.732;2022-12-18T09:31:10;0.30;;;0.30;;
59524;SDS011;45346;51.728;5.732;2022-12-18T09:33:39;0.30;;;0.30;;
59524;SDS011;45346;51.728;5.732;2022-12-18T09:36:06;0.30;;;0.30;;
59524;SDS011;45346;51.728;5.732;2022-12-18T09:38:32;0.30;;;0.30;;
59524;SDS011;45346;51.728;5.732;2022-12-18T09:40:59;0.30;;;0.30;;
59524;SDS011;45346;51.728;5.732;2022-12-18T09:46:01;0.30;;;0.30;;
59524;SDS011;45346;51.728;5.732;2022-12-18T09:48:36;0.22;;;0.22;;
59524;SDS011;45346;51.728;5.732;2022-12-18T09:53:40;0.30;;;0.30;;
59524;SDS011;45346;51.728;5.732;2022-12-18T09:56:10;0.30;;;0.30;;
59524;SDS011;45346;51.728;5.732;2022-12-18T09:58:39;0.30;;;0.30;;
59524;SDS011;45346;51.728;5.732;2022-12-18T10:01:13;0.30;;;0.30;;
59524;SDS011;45346;51.728;5.732;2022-12-18T10:03:41;0.30;;;0.30;;
59524;SDS011;45346;51.728;5.732;2022-12-18T10:13:54;0.30;;;0.30;;
59524;SDS011;45346;51.728;5.732;2022-12-18T10:16:36;0.30;;;0.30;;
59524;SDS011;45346;51.728;5.732;2022-12-18T10:24:37;0.30;;;0.30;;
59524;SDS011;45346;51.728;5.732;2022-12-18T10:29:39;0.30;;;0.30;;
59524;SDS011;45346;51.728;5.732;2022-12-18T10:32:04;0.30;;;0.30;;
59524;SDS011;45346;51.728;5.732;2022-12-18T10:34:29;0.20;;;0.20;;
59524;SDS011;45346;51.728;5.732;2022-12-18T10:36:55;0.30;;;0.30;;
59524;SDS011;45346;51.728;5.732;2022-12-18T10:39:21;0.30;;;0.30;;
59524;SDS011;45346;51.728;5.732;2022-12-18T10:41:47;0.30;;;0.30;;
59524;SDS011;45346;51.728;5.732;2022-12-18T10:44:20;0.30;;;0.30;;
59524;SDS011;45346;51.728;5.732;2022-12-18T10:46:48;0.30;;;0.30;;
59524;SDS011;45346;51.728;5.732;2022-12-18T10:49:18;0.20;;;0.20;;
59524;SDS011;45346;51.728;5.732;2022-12-18T10:51:46;0.30;;;0.30;;
59524;SDS011;45346;51.728;5.732;2022-12-18T10:54:16;0.30;;;0.30;;
59524;SDS011;45346;51.728;5.732;2022-12-18T10:56:43;0.30;;;0.30;;
59524;SDS011;45346;51.728;5.732;2022-12-18T10:59:10;0.20;;;0.20;;
59524;SDS011;45346;51.728;5.732;2022-12-18T11:04:21;0.30;;;0.30;;
59524;SDS011;45346;51.728;5.732;2022-12-18T11:06:52;0.30;;;0.30;;
59524;SDS011;45346;51.728;5.732;2022-12-18T11:09:22;0.30;;;0.30;;
59524;SDS011;45346;51.728;5.732;2022-12-18T11:11:50;0.30;;;0.30;;
59524;SDS011;45346;51.728;5.732;2022-12-18T11:14:20;0.30;;;0.30;;
59524;SDS011;45346;51.728;5.732;2022-12-18T11:16:48;0.30;;;0.30;;
59524;SDS011;45346;51.728;5.732;2022-12-18T11:21:49;0.30;;;0.30;;
59524;SDS011;45346;51.728;5.732;2022-12-18T11:26:51;0.30;;;0.30;;
59524;SDS011;45346;51.728;5.732;2022-12-18T11:29:17;0.30;;;0.30;;
59524;SDS011;45346;51.728;5.732;2022-12-18T11:31:45;0.30;;;0.30;;
59524;SDS011;45346;51.728;5.732;2022-12-18T11:36:45;0.30;;;0.30;;
59524;SDS011;45346;51.728;5.732;2022-12-18T11:39:24;0.25;;;0.25;;
59524;SDS011;45346;51.728;5.732;2022-12-18T11:42:04;0.30;;;0.30;;
59524;SDS011;45346;51.728;5.732;2022-12-18T11:47:25;0.30;;;0.30;;
59524;SDS011;45346;51.728;5.732;2022-12-18T11:50:16;0.25;;;0.25;;
59524;SDS011;45346;51.728;5.732;2022-12-18T11:52:44;0.30;;;0.30;;
59524;SDS011;45346;51.728;5.732;2022-12-18T11:55:11;0.30;;;0.30;;
59524;SDS011;45346;51.728;5.732;2022-12-18T11:57:42;0.30;;;0.30;;
59524;SDS011;45346;51.728;5.732;2022-12-18T12:00:18;0.22;;;0.22;;
59524;SDS011;45346;51.728;5.732;2022-12-18T12:02:53;0.20;;;0.20;;
59524;SDS011;45346;51.728;5.732;2022-12-18T12:06:01;0.30;;;0.30;;
59524;SDS011;45346;51.728;5.732;2022-12-18T12:11:13;0.30;;;0.30;;
59524;SDS011;45346;51.728;5.732;2022-12-18T12:16:36;0.28;;;0.28;;
59524;SDS011;45346;51.728;5.732;2022-12-18T12:21:58;0.30;;;0.30;;
59524;SDS011;45346;51.728;5.732;2022-12-18T12:24:51;0.28;;;0.28;;
59524;SDS011;45346;51.728;5.732;2022-12-18T12:30:09;0.30;;;0.30;;
59524;SDS011;45346;51.728;5.732;2022-12-18T12:32:44;0.30;;;0.30;;
59524;SDS011;45346;51.728;5.732;2022-12-18T12:40:26;0.30;;;0.30;;
59524;SDS011;45346;51.728;5.732;2022-12-18T12:42:57;0.30;;;0.30;;
59524;SDS011;45346;51.728;5.732;2022-12-18T12:45:44;0.30;;;0.30;;
59524;SDS011;45346;51.728;5.732;2022-12-18T12:48:17;0.30;;;0.30;;
59524;SDS011;45346;51.728;5.732;2022-12-18T12:50:46;0.20;;;0.20;;
59524;SDS011;45346;51.728;5.732;2022-12-18T12:53:15;0.30;;;0.30;;
59524;SDS011;45346;51.728;5.732;2022-12-18T12:55:46;0.30;;;0.30;;
59524;SDS011;45346;51.728;5.732;2022-12-18T13:01:02;0.30;;;0.30;;
59524;SDS011;45346;51.728;5.732;2022-12-18T13:06:29;0.20;;;0.20;;
59524;SDS011;45346;51.728;5.732;2022-12-18T13:09:18;0.30;;;0.30;;
59524;SDS011;45346;51.728;5.732;2022-12-18T13:11:44;0.30;;;0.30;;
59524;SDS011;45346;51.728;5.732;2022-12-18T13:14:35;0.30;;;0.30;;
59524;SDS011;45346;51.728;5.732;2022-12-18T13:19:55;0.30;;;0.30;;
59524;SDS011;45346;51.728;5.732;2022-12-18T13:22:31;0.30;;;0.30;;
59524;SDS011;45346;51.728;5.732;2022-12-18T13:24:58;0.25;;;0.25;;
59524;SDS011;45346;51.728;5.732;2022-12-18T13:30:40;0.30;;;0.30;;
59524;SDS011;45346;51.728;5.732;2022-12-18T13:41:22;0.30;;;0.30;;
59524;SDS011;45346;51.728;5.732;2022-12-18T13:43:50;0.30;;;0.30;;
59524;SDS011;45346;51.728;5.732;2022-12-18T13:46:20;0.30;;;0.30;;
59524;SDS011;45346;51.728;5.732;2022-12-18T13:51:39;0.30;;;0.30;;
59524;SDS011;45346;51.728;5.732;2022-12-18T13:54:13;0.22;;;0.22;;
59524;SDS011;45346;51.728;5.732;2022-12-18T13:56:43;0.30;;;0.30;;
59524;SDS011;45346;51.728;5.732;2022-12-18T14:06:51;0.20;;;0.20;;
59524;SDS011;45346;51.728;5.732;2022-12-18T14:09:21;0.20;;;0.20;;
59524;SDS011;45346;51.728;5.732;2022-12-18T14:11:50;0.20;;;0.20;;
59524;SDS011;45346;51.728;5.732;2022-12-18T14:14:16;0.20;;;0.20;;
59524;SDS011;45346;51.728;5.732;2022-12-18T14:16:42;0.30;;;0.30;;
59524;SDS011;45346;51.728;5.732;2022-12-18T14:19:10;0.30;;;0.30;;
59524;SDS011;45346;51.728;5.732;2022-12-18T14:21:39;0.30;;;0.30;;
59524;SDS011;45346;51.728;5.732;2022-12-18T14:24:05;0.30;;;0.30;;
59524;SDS011;45346;51.728;5.732;2022-12-18T14:26:36;0.30;;;0.30;;
59524;SDS011;45346;51.728;5.732;2022-12-18T14:29:17;0.30;;;0.30;;
59524;SDS011;45346;51.728;5.732;2022-12-18T14:32:06;0.30;;;0.30;;
59524;SDS011;45346;51.728;5.732;2022-12-18T14:34:36;0.30;;;0.30;;
59524;SDS011;45346;51.728;5.732;2022-12-18T14:37:01;0.25;;;0.25;;
59524;SDS011;45346;51.728;5.732;2022-12-18T14:39:26;0.30;;;0.30;;
59524;SDS011;45346;51.728;5.732;2022-12-18T14:41:52;0.25;;;0.25;;
59524;SDS011;45346;51.728;5.732;2022-12-18T14:44:17;0.30;;;0.30;;
59524;SDS011;45346;51.728;5.732;2022-12-18T14:46:43;0.20;;;0.20;;
59524;SDS011;45346;51.728;5.732;2022-12-18T14:49:29;0.20;;;0.20;;
59524;SDS011;45346;51.728;5.732;2022-12-18T14:51:57;0.20;;;0.20;;
59524;SDS011;45346;51.728;5.732;2022-12-18T14:54:29;0.27;;;0.27;;
59524;SDS011;45346;51.728;5.732;2022-12-18T14:59:28;0.30;;;0.30;;
59524;SDS011;45346;51.728;5.732;2022-12-18T15:04:43;0.30;;;0.30;;
59524;SDS011;45346;51.728;5.732;2022-12-18T15:07:14;0.30;;;0.30;;
59524;SDS011;45346;51.728;5.732;2022-12-18T15:09:41;0.20;;;0.20;;
59524;SDS011;45346;51.728;5.732;2022-12-18T15:12:19;0.20;;;0.20;;
59524;SDS011;45346;51.728;5.732;2022-12-18T15:14:50;0.20;;;0.20;;
59524;SDS011;45346;51.728;5.732;2022-12-18T15:17:19;0.30;;;0.30;;
59524;SDS011;45346;51.728;5.732;2022-12-18T15:19:47;0.30;;;0.30;;
59524;SDS011;45346;51.728;5.732;2022-12-18T15:24:45;0.30;;;0.30;;
59524;SDS011;45346;51.728;5.732;2022-12-18T15:27:20;0.30;;;0.30;;
59524;SDS011;45346;51.728;5.732;2022-12-18T15:30:02;0.20;;;0.20;;
59524;SDS011;45346;51.728;5.732;2022-12-18T15:32:41;0.30;;;0.30;;
59524;SDS011;45346;51.728;5.732;2022-12-18T15:37:35;0.30;;;0.30;;
59524;SDS011;45346;51.728;5.732;2022-12-18T15:40:17;0.30;;;0.30;;
59524;SDS011;45346;51.728;5.732;2022-12-18T15:42:47;0.30;;;0.30;;
59524;SDS011;45346;51.728;5.732;2022-12-18T15:45:32;0.20;;;0.20;;
59524;SDS011;45346;51.728;5.732;2022-12-18T15:47:58;0.20;;;0.20;;
59524;SDS011;45346;51.728;5.732;2022-12-18T15:50:24;0.30;;;0.30;;
59524;SDS011;45346;51.728;5.732;2022-12-18T15:52:51;0.20;;;0.20;;
59524;SDS011;45346;51.728;5.732;2022-12-18T15:55:18;0.20;;;0.20;;
59524;SDS011;45346;51.728;5.732;2022-12-18T15:58:04;0.20;;;0.20;;
59524;SDS011;45346;51.728;5.732;2022-12-18T16:00:31;0.20;;;0.20;;
59524;SDS011;45346;51.728;5.732;2022-12-18T16:02:57;0.30;;;0.30;;
59524;SDS011;45346;51.728;5.732;2022-12-18T16:05:23;0.30;;;0.30;;
59524;SDS011;45346;51.728;5.732;2022-12-18T16:07:49;0.30;;;0.30;;
59524;SDS011;45346;51.728;5.732;2022-12-18T16:10:14;0.20;;;0.20;;
59524;SDS011;45346;51.728;5.732;2022-12-18T16:12:40;0.30;;;0.30;;
59524;SDS011;45346;51.728;5.732;2022-12-18T16:15:06;0.20;;;0.20;;
59524;SDS011;45346;51.728;5.732;2022-12-18T16:17:32;0.30;;;0.30;;
59524;SDS011;45346;51.728;5.732;2022-12-18T16:19:57;0.30;;;0.30;;
59524;SDS011;45346;51.728;5.732;2022-12-18T16:22:23;0.30;;;0.30;;
59524;SDS011;45346;51.728;5.732;2022-12-18T16:24:51;0.30;;;0.30;;
59524;SDS011;45346;51.728;5.732;2022-12-18T16:27:17;0.30;;;0.30;;
59524;SDS011;45346;51.728;5.732;2022-12-18T16:29:43;0.30;;;0.30;;
59524;SDS011;45346;51.728;5.732;2022-12-18T16:32:11;0.30;;;0.30;;
59524;SDS011;45346;51.728;5.732;2022-12-18T16:34:39;0.30;;;0.30;;
59524;SDS011;45346;51.728;5.732;2022-12-18T16:37:05;0.30;;;0.30;;
59524;SDS011;45346;51.728;5.732;2022-12-18T16:39:33;0.20;;;0.20;;
59524;SDS011;45346;51.728;5.732;2022-12-18T16:41:59;0.30;;;0.30;;
59524;SDS011;45346;51.728;5.732;2022-12-18T16:44:28;0.30;;;0.30;;
59524;SDS011;45346;51.728;5.732;2022-12-18T16:46:53;0.30;;;0.30;;
59524;SDS011;45346;51.728;5.732;2022-12-18T16:49:19;0.30;;;0.30;;
59524;SDS011;45346;51.728;5.732;2022-12-18T16:51:47;0.30;;;0.30;;
59524;SDS011;45346;51.728;5.732;2022-12-18T16:54:13;0.30;;;0.30;;